createdAt,value
2018-01-21T00:01:52.806Z,80.10
2018-01-21T00:04:21.084Z,80.37
2018-01-21T00:06:49.464Z,80.43
2018-01-21T00:09:17.790Z,79.53
2018-01-21T00:11:46.055Z,79.41
2018-01-21T00:14:14.359Z,80.23
2018-01-21T00:16:42.636Z,81.30
2018-01-21T00:19:10.950Z,82.15
2018-01-21T00:21:39.242Z,82.04
2018-01-21T00:24:07.588Z,80.99
2018-01-21T00:26:35.879Z,80.97
2018-01-21T00:29:05.086Z,80.50
2018-01-21T00:31:33.362Z,80.72
2018-01-21T00:34:01.718Z,81.56
2018-01-21T00:36:30.021Z,80.99
2018-01-21T00:38:58.278Z,80.89
2018-01-21T00:41:26.986Z,80.59
2018-01-21T00:43:55.262Z,80.35
2018-01-21T00:46:23.562Z,80.67
2018-01-21T00:48:51.817Z,81.52
2018-01-21T00:51:20.108Z,81.00
2018-01-21T00:53:48.393Z,81.56
2018-01-21T00:56:16.683Z,80.98
2018-01-21T00:58:44.991Z,80.43
2018-01-21T01:01:13.400Z,80.21
2018-01-21T01:03:41.696Z,80.02
2018-01-21T01:06:09.981Z,79.88
2018-01-21T01:08:38.255Z,79.94
2018-01-21T01:11:06.535Z,79.95
2018-01-21T01:13:34.800Z,79.36
2018-01-21T01:16:03.116Z,79.42
2018-01-21T01:18:31.393Z,79.75
2018-01-21T01:20:59.663Z,79.33
2018-01-21T01:23:27.955Z,79.14
2018-01-21T01:25:56.228Z,78.88
2018-01-21T01:28:24.532Z,79.00
2018-01-21T01:30:52.801Z,78.31
2018-01-21T01:33:21.113Z,78.14
2018-01-21T01:35:49.370Z,78.71
2018-01-21T01:38:17.651Z,78.94
2018-01-21T01:40:45.913Z,78.27
2018-01-21T01:43:14.196Z,78.29
2018-01-21T01:45:42.775Z,78.36
2018-01-21T01:48:11.063Z,78.56
2018-01-21T01:50:39.312Z,78.86
2018-01-21T01:53:07.602Z,78.39
2018-01-21T01:55:35.877Z,78.28
2018-01-21T01:58:04.167Z,78.34
2018-01-21T02:00:32.457Z,78.38
2018-01-21T02:03:00.723Z,78.25
2018-01-21T02:05:29.150Z,78.69
2018-01-21T02:07:57.410Z,78.59
2018-01-21T02:10:25.703Z,78.59
2018-01-21T02:12:53.987Z,78.09
2018-01-21T02:15:22.281Z,78.21
2018-01-21T02:17:50.558Z,78.96
2018-01-21T02:20:18.850Z,79.99
2018-01-21T02:22:47.111Z,80.41
2018-01-21T02:25:15.533Z,80.46
2018-01-21T02:27:43.773Z,80.32
2018-01-21T02:30:12.027Z,79.75
2018-01-21T02:32:40.326Z,78.86
2018-01-21T02:35:08.607Z,78.33
2018-01-21T02:37:36.939Z,78.64
2018-01-21T02:40:05.274Z,79.18
2018-01-21T02:42:33.554Z,79.93
2018-01-21T02:45:01.850Z,80.56
2018-01-21T02:47:30.123Z,80.99
2018-01-21T02:49:58.368Z,81.33
2018-01-21T02:52:26.643Z,81.46
2018-01-21T02:54:54.923Z,81.28
2018-01-21T02:57:23.212Z,80.33
2018-01-21T02:59:51.853Z,79.83
2018-01-21T03:02:20.153Z,79.66
2018-01-21T03:04:48.439Z,79.80
2018-01-21T03:07:16.729Z,78.87
2018-01-21T03:09:45.014Z,78.48
2018-01-21T03:12:13.434Z,78.64
2018-01-21T03:14:57.483Z,78.57
2018-01-21T03:17:26.830Z,77.49
2018-01-21T03:19:55.124Z,78.00
2018-01-21T03:22:24.459Z,77.28
2018-01-21T03:24:52.864Z,77.11
2018-01-21T03:27:21.151Z,77.33
2018-01-21T03:29:49.437Z,77.33
2018-01-21T03:32:18.531Z,77.60
2018-01-21T03:34:46.824Z,77.74
2018-01-21T03:37:15.128Z,77.78
2018-01-21T03:39:44.327Z,77.82
2018-01-21T03:42:12.589Z,78.04
2018-01-21T03:44:40.858Z,78.16
2018-01-21T03:47:09.268Z,77.82
2018-01-21T03:49:37.543Z,77.65
2018-01-21T03:52:05.872Z,77.62
2018-01-21T03:54:34.111Z,77.60
2018-01-21T03:57:02.428Z,78.17
2018-01-21T03:59:30.722Z,78.58
2018-01-21T04:01:59.039Z,78.71
2018-01-21T04:04:27.314Z,77.83
2018-01-21T04:06:55.608Z,78.23
2018-01-21T04:09:23.867Z,79.05
2018-01-21T04:11:52.204Z,79.57
2018-01-21T04:14:21.062Z,79.92
2018-01-21T04:16:49.347Z,79.76
2018-01-21T04:19:17.627Z,80.21
2018-01-21T04:21:45.916Z,80.50
2018-01-21T04:24:14.182Z,80.41
2018-01-21T04:26:42.474Z,80.07
2018-01-21T04:29:10.763Z,79.54
2018-01-21T04:31:39.024Z,79.43
2018-01-21T04:34:07.371Z,78.64
2018-01-21T04:36:35.662Z,78.99
2018-01-21T04:39:03.940Z,78.97
2018-01-21T04:41:32.235Z,78.14
2018-01-21T04:44:00.558Z,78.34
2018-01-21T04:46:28.853Z,77.66
2018-01-21T04:48:57.138Z,77.61
2018-01-21T04:51:25.420Z,76.86
2018-01-21T04:53:53.704Z,76.87
2018-01-21T04:56:21.988Z,76.28
2018-01-21T04:58:50.267Z,76.51
2018-01-21T05:01:18.540Z,76.23
2018-01-21T05:03:46.826Z,76.39
2018-01-21T05:06:15.116Z,76.95
2018-01-21T05:08:43.432Z,77.79
2018-01-21T05:11:11.714Z,77.95
2018-01-21T05:13:39.982Z,78.53
2018-01-21T05:16:08.288Z,78.61
2018-01-21T05:18:36.570Z,78.13
2018-01-21T05:21:04.842Z,76.97
2018-01-21T05:23:33.096Z,76.35
2018-01-21T05:26:01.378Z,76.29
2018-01-21T05:28:29.640Z,77.02
2018-01-21T05:30:57.916Z,77.21
2018-01-21T05:33:26.186Z,75.88
2018-01-21T05:35:54.588Z,76.06
2018-01-21T05:38:22.876Z,75.73
2018-01-21T05:40:51.139Z,75.76
2018-01-21T05:43:19.426Z,76.36
2018-01-21T05:45:47.713Z,75.99
2018-01-21T05:48:16.066Z,75.88
2018-01-21T05:50:44.335Z,75.46
2018-01-21T05:53:12.627Z,75.40
2018-01-21T05:55:40.882Z,74.95
2018-01-21T05:58:09.158Z,75.58
2018-01-21T06:00:37.462Z,75.63
2018-01-21T06:03:05.731Z,75.96
2018-01-21T06:05:34.008Z,75.14
2018-01-21T06:08:02.296Z,74.87
2018-01-21T06:10:30.575Z,75.09
2018-01-21T06:12:58.842Z,74.78
2018-01-21T06:15:27.106Z,75.56
2018-01-21T06:17:55.388Z,75.65
2018-01-21T06:20:23.647Z,76.67
2018-01-21T06:22:51.931Z,77.23
2018-01-21T06:25:20.221Z,76.80
2018-01-21T06:27:48.489Z,76.51
2018-01-21T06:30:16.767Z,75.54
2018-01-21T06:32:45.015Z,75.28
2018-01-21T06:35:13.301Z,75.47
2018-01-21T06:37:41.610Z,75.81
2018-01-21T06:40:09.857Z,75.09
2018-01-21T06:42:38.149Z,74.77
2018-01-21T06:45:06.459Z,75.63
2018-01-21T06:47:34.716Z,76.45
2018-01-21T06:50:03.168Z,76.35
2018-01-21T06:52:31.398Z,75.89
2018-01-21T06:54:59.666Z,75.68
2018-01-21T06:57:27.978Z,75.71
2018-01-21T06:59:56.271Z,75.56
2018-01-21T07:02:24.550Z,74.99
2018-01-21T07:04:52.807Z,75.17
2018-01-21T07:07:21.095Z,75.62
2018-01-21T07:09:49.376Z,75.54
2018-01-21T07:12:17.679Z,75.99
2018-01-21T07:14:45.965Z,76.20
2018-01-21T07:17:14.255Z,76.45
2018-01-21T07:19:42.535Z,76.48
2018-01-21T07:22:10.807Z,76.00
2018-01-21T07:24:39.087Z,75.98
2018-01-21T07:27:07.359Z,76.15
2018-01-21T07:29:35.646Z,75.58
2018-01-21T07:32:03.932Z,76.41
2018-01-21T07:34:33.126Z,76.27
2018-01-21T07:37:01.374Z,75.80
2018-01-21T07:39:29.664Z,75.59
2018-01-21T07:41:58.083Z,75.51
2018-01-21T07:44:26.364Z,75.22
2018-01-21T07:46:54.688Z,75.65
2018-01-21T07:49:22.971Z,76.13
2018-01-21T07:51:51.227Z,76.17
2018-01-21T07:54:19.501Z,76.39
2018-01-21T07:56:47.874Z,75.93
2018-01-21T07:59:16.247Z,75.73
2018-01-21T08:01:44.486Z,75.71
2018-01-21T08:04:12.734Z,75.51
2018-01-21T08:06:41.009Z,75.47
2018-01-21T08:09:09.267Z,75.45
2018-01-21T08:11:37.540Z,75.35
2018-01-21T08:14:05.812Z,75.27
2018-01-21T08:16:34.168Z,75.04
2018-01-21T08:19:02.438Z,75.04
2018-01-21T08:21:30.722Z,75.12
2018-01-21T08:23:59.000Z,74.94
2018-01-21T08:26:27.971Z,74.88
2018-01-21T08:28:56.444Z,75.12
2018-01-21T08:31:24.849Z,74.13
2018-01-21T08:33:58.579Z,74.31
2018-01-21T08:36:32.356Z,73.64
2018-01-21T08:39:06.417Z,73.09
2018-01-21T08:41:53.450Z,73.50
2018-01-21T08:44:23.014Z,73.33
2018-01-21T08:46:51.290Z,73.28
2018-01-21T08:49:20.271Z,73.23
2018-01-21T08:51:49.010Z,72.82
2018-01-21T08:54:17.351Z,72.51
2018-01-21T08:56:45.649Z,72.81
2018-01-21T08:59:14.007Z,72.80
2018-01-21T09:01:42.281Z,72.78
2018-01-21T09:04:11.379Z,73.74
2018-01-21T09:06:39.676Z,73.48
2018-01-21T09:09:07.949Z,73.38
2018-01-21T09:11:36.257Z,72.75
2018-01-21T09:14:05.731Z,73.00
2018-01-21T09:16:34.043Z,73.19
2018-01-21T09:19:02.291Z,73.58
2018-01-21T09:21:32.831Z,73.35
2018-01-21T09:24:01.112Z,73.37
2018-01-21T09:26:39.563Z,73.27
2018-01-21T09:29:11.353Z,73.10
2018-01-21T09:31:39.654Z,72.72
2018-01-21T09:34:07.913Z,72.98
2018-01-21T09:36:36.154Z,73.44
2018-01-21T09:39:04.438Z,73.20
2018-01-21T09:41:32.706Z,72.76
2018-01-21T09:44:01.002Z,72.41
2018-01-21T09:46:29.296Z,72.89
2018-01-21T09:48:57.561Z,73.21
2018-01-21T09:51:25.815Z,72.42
2018-01-21T09:53:54.091Z,72.56
2018-01-21T09:56:22.355Z,72.91
2018-01-21T09:58:50.645Z,72.69
2018-01-21T10:01:18.907Z,72.20
2018-01-21T10:03:47.183Z,71.17
2018-01-21T10:06:15.460Z,71.33
2018-01-21T10:08:43.706Z,71.08
2018-01-21T10:11:11.983Z,70.85
2018-01-21T10:13:40.248Z,70.07
2018-01-21T10:16:08.525Z,70.00
2018-01-21T10:18:36.780Z,70.31
2018-01-21T10:21:05.723Z,70.66
2018-01-21T10:23:34.028Z,70.98
2018-01-21T10:26:02.304Z,70.86
2018-01-21T10:28:30.586Z,70.13
2018-01-21T10:30:58.840Z,70.56
2018-01-21T10:33:27.314Z,69.73
2018-01-21T10:35:55.620Z,69.71
2018-01-21T10:38:23.903Z,69.63
2018-01-21T10:40:52.189Z,70.57
2018-01-21T10:43:20.454Z,69.60
2018-01-21T10:45:48.730Z,69.26
2018-01-21T10:48:16.985Z,69.97
2018-01-21T10:50:46.373Z,69.70
2018-01-21T10:53:14.659Z,69.49
2018-01-21T10:55:42.965Z,69.28
2018-01-21T10:58:11.276Z,69.27
2018-01-21T11:00:47.275Z,69.09
2018-01-21T11:03:15.556Z,67.95
2018-01-21T11:05:43.824Z,68.97
2018-01-21T11:08:12.118Z,69.13
2018-01-21T11:10:40.403Z,69.77
2018-01-21T11:13:08.734Z,69.49
2018-01-21T11:15:37.004Z,70.08
2018-01-21T11:18:05.501Z,69.63
2018-01-21T11:20:34.472Z,68.66
2018-01-21T11:23:02.762Z,69.44
2018-01-21T11:25:31.058Z,69.33
2018-01-21T11:27:59.322Z,69.28
2018-01-21T11:30:27.604Z,69.02
2018-01-21T11:32:56.153Z,69.34
2018-01-21T11:35:24.435Z,69.29
2018-01-21T11:37:52.718Z,68.66
2018-01-21T11:40:21.106Z,68.72
2018-01-21T11:42:49.377Z,68.78
2018-01-21T11:45:17.652Z,68.99
2018-01-21T11:47:45.984Z,68.30
2018-01-21T11:50:14.313Z,69.01
2018-01-21T11:52:42.597Z,69.01
2018-01-21T11:55:10.900Z,68.85
2018-01-21T11:57:39.138Z,68.55
2018-01-21T12:00:07.425Z,67.68
2018-01-21T12:02:35.724Z,66.12
2018-01-21T12:05:03.972Z,66.60
2018-01-21T12:07:32.273Z,66.19
2018-01-21T12:10:00.530Z,66.25
2018-01-21T12:12:28.840Z,65.57
2018-01-21T12:14:57.099Z,66.34
2018-01-21T12:17:25.387Z,66.44
2018-01-21T12:19:54.260Z,66.63
2018-01-21T12:22:22.634Z,66.63
2018-01-21T12:24:50.982Z,66.56
2018-01-21T12:27:19.258Z,66.16
2018-01-21T12:29:47.536Z,66.97
2018-01-21T12:32:15.894Z,66.95
2018-01-21T12:34:44.171Z,67.32
2018-01-21T12:37:12.515Z,67.04
2018-01-21T12:39:40.822Z,65.46
2018-01-21T12:42:09.089Z,65.34
2018-01-21T12:44:37.392Z,65.18
2018-01-21T12:47:05.747Z,65.36
2018-01-21T12:49:34.036Z,64.83
2018-01-21T12:52:02.319Z,63.87
2018-01-21T12:54:30.618Z,63.83
2018-01-21T12:56:59.216Z,63.71
2018-01-21T12:59:27.588Z,62.43
2018-01-21T13:01:55.825Z,62.01
2018-01-21T13:04:24.111Z,62.19
2018-01-21T13:06:52.578Z,61.27
2018-01-21T13:09:20.884Z,61.41
2018-01-21T13:11:49.152Z,61.48
2018-01-21T13:14:17.410Z,60.14
2018-01-21T13:16:45.714Z,61.01
2018-01-21T13:19:13.998Z,61.39
2018-01-21T13:21:42.266Z,61.13
2018-01-21T13:24:10.511Z,61.93
2018-01-21T13:26:38.818Z,61.92
2018-01-21T13:29:07.157Z,62.60
2018-01-21T13:31:35.436Z,62.26
2018-01-21T13:34:04.189Z,62.25
2018-01-21T13:36:32.502Z,61.44
2018-01-21T13:39:00.781Z,62.20
2018-01-21T13:41:29.057Z,62.05
2018-01-21T13:43:57.321Z,61.15
2018-01-21T13:46:25.607Z,61.30
2018-01-21T13:49:00.473Z,61.66
2018-01-21T13:51:29.394Z,61.28
2018-01-21T13:53:57.748Z,61.04
2018-01-21T13:56:26.551Z,60.25
2018-01-21T13:58:55.726Z,59.70
2018-01-21T14:01:24.004Z,59.53
2018-01-21T14:03:52.294Z,59.28
2018-01-21T14:06:20.540Z,59.56
2018-01-21T14:08:48.839Z,60.26
2018-01-21T14:11:17.151Z,60.10
2018-01-21T14:13:45.433Z,59.36
2018-01-21T14:16:13.715Z,59.19
2018-01-21T14:18:42.016Z,59.79
2018-01-21T14:21:10.275Z,60.02
2018-01-21T14:23:38.594Z,59.85
2018-01-21T14:26:06.853Z,60.69
2018-01-21T14:28:35.336Z,60.54
2018-01-21T14:31:03.623Z,60.93
2018-01-21T14:33:31.894Z,61.43
2018-01-21T14:36:00.185Z,60.83
2018-01-21T14:38:28.470Z,61.25
2018-01-21T14:40:56.817Z,61.97
2018-01-21T14:43:25.095Z,62.02
2018-01-21T14:45:53.402Z,62.81
2018-01-21T14:48:21.678Z,62.80
2018-01-21T14:50:50.283Z,62.38
2018-01-21T14:53:18.666Z,62.75
2018-01-21T14:55:46.932Z,63.21
2018-01-21T14:58:15.226Z,62.90
2018-01-21T15:00:43.556Z,62.37
2018-01-21T15:03:11.879Z,62.76
2018-01-21T15:05:40.228Z,63.05
2018-01-21T15:08:08.472Z,63.08
2018-01-21T15:10:36.735Z,63.66
2018-01-21T15:13:05.024Z,64.34
2018-01-21T15:15:33.320Z,64.84
2018-01-21T15:18:01.600Z,64.32
2018-01-21T15:20:30.398Z,64.27
2018-01-21T15:22:58.770Z,64.17
2018-01-21T15:25:27.030Z,64.05
2018-01-21T15:27:55.413Z,63.87
2018-01-21T15:30:23.676Z,64.33
2018-01-21T15:32:52.279Z,66.03
2018-01-21T15:35:20.538Z,67.04
2018-01-21T15:37:48.869Z,67.61
2018-01-21T15:40:17.160Z,68.04
2018-01-21T15:42:45.463Z,68.22
2018-01-21T15:45:13.813Z,68.12
2018-01-21T15:47:42.075Z,68.14
2018-01-21T15:50:10.430Z,67.94
2018-01-21T15:52:38.710Z,67.97
2018-01-21T15:55:07.058Z,67.57
2018-01-21T15:57:35.438Z,67.73
2018-01-21T16:00:03.716Z,68.14
2018-01-21T16:02:32.111Z,68.44
2018-01-21T16:05:01.746Z,68.53
2018-01-21T16:07:30.055Z,68.76
2018-01-21T16:09:58.383Z,68.29
2018-01-21T16:12:26.648Z,68.45
2018-01-21T16:14:55.016Z,68.54
2018-01-21T16:17:23.293Z,68.68
2018-01-21T16:19:51.579Z,68.94
2018-01-21T16:22:19.901Z,69.27
2018-01-21T16:24:48.402Z,69.18
2018-01-21T16:27:16.670Z,69.41
2018-01-21T16:29:45.031Z,69.10
2018-01-21T16:32:13.338Z,69.08
2018-01-21T16:34:41.708Z,68.65
2018-01-21T16:37:21.875Z,68.22
2018-01-21T16:39:50.165Z,68.40
2018-01-21T16:42:18.586Z,67.82
2018-01-21T16:44:46.879Z,68.06
2018-01-21T16:47:15.252Z,67.95
2018-01-21T16:49:43.500Z,67.92
2018-01-21T16:52:11.800Z,67.84
2018-01-21T16:54:40.099Z,68.50
2018-01-21T16:57:08.343Z,69.04
2018-01-21T16:59:36.645Z,69.65
2018-01-21T17:02:04.898Z,70.54
2018-01-21T17:04:33.198Z,70.81
2018-01-21T17:07:01.444Z,70.99
2018-01-21T17:09:29.741Z,71.31
2018-01-21T17:11:58.003Z,71.48
2018-01-21T17:14:26.291Z,71.56
2018-01-21T17:16:54.536Z,71.66
2018-01-21T17:19:23.524Z,71.67
2018-01-21T17:21:51.859Z,71.95
2018-01-21T17:24:20.095Z,72.22
2018-01-21T17:26:48.794Z,72.21
2018-01-21T17:29:17.069Z,71.93
2018-01-21T17:31:45.363Z,71.89
2018-01-21T17:34:13.640Z,71.71
2018-01-21T17:36:41.923Z,71.92
2018-01-21T17:39:10.179Z,72.13
2018-01-21T17:41:38.484Z,72.19
2018-01-21T17:44:06.734Z,72.10
2018-01-21T17:46:35.038Z,72.38
2018-01-21T17:49:03.552Z,72.63
2018-01-21T17:51:31.923Z,72.72
2018-01-21T17:54:00.449Z,72.49
2018-01-21T17:56:28.691Z,72.46
2018-01-21T17:58:56.997Z,72.73
2018-01-21T18:01:25.399Z,73.48
2018-01-21T18:03:53.679Z,73.17
2018-01-21T18:06:21.968Z,72.76
2018-01-21T18:08:50.225Z,72.50
2018-01-21T18:11:18.568Z,72.59
2018-01-21T18:13:46.875Z,72.51
2018-01-21T18:16:15.221Z,72.63
2018-01-21T18:18:43.475Z,72.51
2018-01-21T18:21:11.737Z,72.85
2018-01-21T18:23:40.040Z,73.49
2018-01-21T18:26:08.327Z,73.22
2018-01-21T18:28:36.605Z,73.11
2018-01-21T18:31:04.940Z,72.64
2018-01-21T18:33:33.245Z,72.43
2018-01-21T18:36:01.512Z,72.35
2018-01-21T18:38:29.817Z,72.14
2018-01-21T18:40:58.090Z,72.08
2018-01-21T18:43:26.392Z,72.43
2018-01-21T18:45:54.643Z,72.59
2018-01-21T18:48:22.955Z,72.83
2018-01-21T18:50:51.236Z,72.83
2018-01-21T18:53:19.527Z,72.66
2018-01-21T18:55:47.843Z,72.78
2018-01-21T18:58:16.630Z,72.89
2018-01-21T19:00:44.896Z,72.70
2018-01-21T19:03:13.166Z,72.71
2018-01-21T19:05:41.456Z,72.67
2018-01-21T19:08:09.771Z,72.78
2018-01-21T19:10:38.015Z,73.18
2018-01-21T19:13:06.308Z,73.61
2018-01-21T19:15:35.539Z,73.23
2018-01-21T19:18:03.819Z,73.69
2018-01-21T19:20:32.094Z,73.75
2018-01-21T19:23:00.372Z,73.68
2018-01-21T19:25:28.678Z,73.55
2018-01-21T19:27:56.943Z,73.38
2018-01-21T19:30:25.240Z,73.32
2018-01-21T19:32:53.519Z,73.28
2018-01-21T19:35:22.536Z,72.92
2018-01-21T19:37:50.888Z,72.50
2018-01-21T19:40:37.053Z,72.17
2018-01-21T19:43:11.188Z,72.29
2018-01-21T19:45:39.662Z,72.22
2018-01-21T19:48:07.926Z,72.10
2018-01-21T19:50:36.204Z,73.01
2018-01-21T19:53:05.106Z,72.08
2018-01-21T19:55:33.337Z,71.92
2018-01-21T19:58:02.326Z,72.31
2018-01-21T20:00:30.588Z,72.25
2018-01-21T20:02:58.876Z,71.80
2018-01-21T20:05:27.126Z,71.88
2018-01-21T20:07:55.429Z,72.53
2018-01-21T20:10:23.721Z,72.31
2018-01-21T20:12:52.819Z,71.88
2018-01-21T20:15:22.792Z,71.72
2018-01-21T20:17:51.058Z,71.41
2018-01-21T20:20:19.344Z,71.78
2018-01-21T20:22:47.657Z,71.64
2018-01-21T20:25:16.392Z,71.64
2018-01-21T20:27:44.671Z,71.82
2018-01-21T20:30:12.955Z,71.71
2018-01-21T20:32:41.198Z,71.48
2018-01-21T20:35:09.496Z,71.64
2018-01-21T20:37:37.750Z,71.53
2018-01-21T20:40:06.041Z,71.58
2018-01-21T20:42:34.325Z,71.78
2018-01-21T20:45:02.686Z,72.01
2018-01-21T20:47:30.945Z,71.96
2018-01-21T20:49:59.221Z,71.52
2018-01-21T20:55:32.652Z,71.83
2018-01-21T20:58:00.928Z,71.79
2018-01-21T21:00:29.262Z,71.39
2018-01-21T21:02:57.510Z,71.19
2018-01-21T21:05:25.872Z,71.32
2018-01-21T21:07:55.673Z,71.39
2018-01-21T21:10:23.932Z,71.82
2018-01-21T21:12:52.222Z,71.68
2018-01-21T21:15:20.517Z,71.52
2018-01-21T21:17:48.892Z,71.18
2018-01-21T21:20:18.699Z,70.47
2018-01-21T21:22:48.017Z,71.05
2018-01-21T21:25:16.472Z,69.96
2018-01-21T21:27:44.834Z,69.79
2018-01-21T21:30:13.108Z,69.91
2018-01-21T21:32:41.410Z,70.16
2018-01-21T21:35:09.788Z,70.23
2018-01-21T21:37:38.076Z,70.45
2018-01-21T21:40:06.816Z,70.68
2018-01-21T21:42:35.094Z,71.01
2018-01-21T21:45:03.358Z,71.93
2018-01-21T21:47:32.119Z,72.01
2018-01-21T21:50:00.398Z,72.43
2018-01-21T21:52:28.652Z,72.13
2018-01-21T21:54:56.923Z,72.47
2018-01-21T21:57:25.189Z,72.04
2018-01-21T21:59:53.947Z,72.88
2018-01-21T22:02:22.231Z,73.03
2018-01-21T22:04:50.507Z,73.11
2018-01-21T22:07:18.783Z,72.94
2018-01-21T22:09:47.129Z,73.11
2018-01-21T22:12:15.396Z,72.82
2018-01-21T22:14:43.695Z,72.03
2018-01-21T22:17:12.000Z,72.46
2018-01-21T22:19:40.303Z,72.84
2018-01-21T22:22:08.632Z,72.57
2018-01-21T22:24:37.179Z,71.76
2018-01-21T22:27:05.534Z,71.54
2018-01-21T22:29:33.888Z,71.77
2018-01-21T22:32:02.213Z,71.49
2018-01-21T22:34:30.470Z,71.34
2018-01-21T22:36:58.760Z,71.83
2018-01-21T22:39:27.151Z,72.24
2018-01-21T22:41:55.479Z,72.43
2018-01-21T22:44:23.784Z,72.18
2018-01-21T22:46:52.080Z,72.15
2018-01-21T22:49:20.336Z,72.51
2018-01-21T22:51:48.622Z,73.00
2018-01-21T22:54:16.994Z,72.81
2018-01-21T22:56:45.264Z,73.14
2018-01-21T22:59:13.614Z,73.48
2018-01-21T23:01:41.882Z,73.21
2018-01-21T23:04:10.194Z,73.81
2018-01-21T23:06:38.470Z,73.95
2018-01-21T23:09:06.819Z,74.15
2018-01-21T23:11:35.087Z,74.17
2018-01-21T23:14:04.284Z,74.28
2018-01-21T23:16:32.513Z,74.61
2018-01-21T23:19:00.792Z,75.37
2018-01-21T23:21:29.034Z,75.70
2018-01-21T23:23:57.344Z,76.26
2018-01-21T23:26:25.567Z,76.69
2018-01-21T23:28:53.906Z,76.98
2018-01-21T23:31:22.128Z,77.00
2018-01-21T23:33:50.435Z,77.44
2018-01-21T23:36:18.703Z,78.50
2018-01-21T23:38:46.966Z,78.65
2018-01-21T23:41:15.266Z,78.94
2018-01-21T23:43:43.532Z,78.76
2018-01-21T23:46:11.811Z,79.04
2018-01-21T23:48:40.059Z,79.69
2018-01-21T23:51:08.359Z,79.61
2018-01-21T23:53:36.623Z,80.04
2018-01-21T23:56:05.706Z,80.15
2018-01-21T23:58:33.966Z,80.21
